Ana Sayfa
METAR-TAF:

METAR-TAF

Havaalanları :

Dakar, Senegal

Enlem: 14-44N, Boylam: 017-30W, yükseklik: 27 m

Güncel hava durumu gözlemi

Rapor saat 01:00 UTC de 27 dakika önce yapıldı.
Rüzgar batı/güneybatıdan 4 kt, güney/güneybatı ve batı/kuzeybatı arasında değişken
Sıcaklık 27°C
Nem 84%
Basınç 1012 hPa
Görüş mesafesi 10 km veya daha fazla
1000 ft yükseklikte parçalı çok bulutlu

METAR: GOOY 140100Z 24004KT 200V290 9999 BKN010 27/24 Q1012

Saat: 01:27 (01:27 UTC)

Tahmin

Rapor saat 23:00 UTC de 2 saat ve 27 dakika önce yapıldı.
Ayın 14'si saat 00 UTC'den ayın 15'si saat 06 UTC'ye kadar geçerli Tahmin
Rüzgar batıdan 10 kt
Görüş mesafesi 10 km veya daha fazla
1300 ft yükseklikte parçalı bulutlu
Geçici
ayın 14'si saat 04 UTC'den ayın 14'si saat 10 UTC'ye kadar
1200 ft yükseklikte parçalı çok bulutlu

TAF: GOOY 132300Z 1400/1506 28010KT 9999 SCT013 TEMPO 1404/1410 BKN012

4.000'den fazla havaalanı için hava durumu gözlemleri ve tahminleri (METAR ve TAF raporları).

Kullanılabilir istasyonlar harita üzerinde sarı ve kırmızı noktalarla gösterilir.

İstasyonun adını görmek için fareyi noktanın üzerinde gezdirin.

Sonrasında hava gözlem ve tahminlerini görmek için tıklayın.

Haritayı değiştirmek için: yaklaştırmak için siyah artı işaretli yeşil düğmeye ve uzaklaştırmak için de eksi işaretli düğmeye hızla tıklayın; bitişik haritalar için yeşil okları kullanın.


METAR-TAF: